PWSweather.com
Personal Weather Stations
Station Observations
LOBIOS
Galicia, LobiosES

GaliciaLobiosES

Lat: 41.895, Lon: -8.091667

Elevation: 1597

Station Type: Automática/Davis Vantage Pro2 Plus

Latest ConditionsUpdated 5:40:01 PM GMT+01:01 Monday, Sep 23, 2019
Currently Today's Max Today's Min Today's Average
Temperature 66.5°F19.2°C 71.0°F21.7°C 54.2°F12.3°C 60.4°F15.8°C
Dew Point 57.6°F14.2°C 58.6°F14.8°C 51.3°F10.7°C 54.9°F12.7°C
Winds 12.7 mph SW20.4 kmh SW 19.6 mph -31.5 kmh - - 6.3 mph 10.1 kmh
Wind Gusts 15.0 mph24.1 kmh 28.8 mph46.3 kmh - -
Humidity 73% 94% 63% 83%
Pressure 30.12 in1020.0 mb 30.16 in1021.3 mb 30.10 in1019.3 mb -
Hour Temp Dew Point Humidity Winds Wind Gusts Pressure Precip Precip Rate Daily Precip Total
05:40 PM 66.5°F19.2°C 57.6°F14.2°C 73% 12.7 mph SW20.4 kmh SW 15.0 mph24.1 kmh 30.12 in1020.0 mb - 0.00 in0.0 mm 0.00 in0.0 mm
05:30 PM 66.5°F19.2°C 57.6°F14.2°C 73% 8.1 mph WSW13.0 kmh WSW 13.8 mph22.2 kmh 30.12 in1020.0 mb - 0.00 in0.0 mm 0.00 in0.0 mm
05:20 PM 66.6°F19.2°C 57.3°F14.1°C 72% 9.2 mph WSW14.8 kmh WSW 11.5 mph18.5 kmh 30.12 in1020.0 mb - 0.00 in0.0 mm 0.00 in0.0 mm
05:10 PM 67.0°F19.4°C 57.3°F14.1°C 71% 10.4 mph SW16.7 kmh SW 11.5 mph18.5 kmh 30.12 in1020.0 mb - 0.00 in0.0 mm 0.00 in0.0 mm
05:00 PM 67.3°F19.6°C 57.6°F14.2°C 71% 10.4 mph SW16.7 kmh SW 16.1 mph25.9 kmh 30.12 in1020.0 mb - 0.00 in0.0 mm 0.00 in0.0 mm
04:50 PM 67.4°F19.7°C 57.7°F14.3°C 71% 9.2 mph SW14.8 kmh SW 16.1 mph25.9 kmh 30.12 in1020.0 mb - 0.00 in0.0 mm 0.00 in0.0 mm
04:40 PM 67.7°F19.8°C 58.0°F14.4°C 71% 12.7 mph SSW20.4 kmh SSW 18.4 mph29.6 kmh 30.12 in1020.0 mb - 0.00 in0.0 mm 0.00 in0.0 mm
04:30 PM 67.9°F19.9°C 57.8°F14.3°C 70% 13.8 mph SSW22.2 kmh SSW 19.6 mph31.5 kmh 30.12 in1020.0 mb - 0.00 in0.0 mm 0.00 in0.0 mm
04:20 PM 68.3°F20.2°C 58.1°F14.5°C 70% 13.8 mph SSW22.2 kmh SSW 23.0 mph37.0 kmh 30.12 in1020.0 mb - 0.00 in0.0 mm 0.00 in0.0 mm
04:10 PM 68.7°F20.4°C 58.1°F14.5°C 69% 17.3 mph SSW27.8 kmh SSW 23.0 mph37.0 kmh 30.12 in1020.0 mb - 0.00 in0.0 mm 0.00 in0.0 mm
04:00 PM 69.0°F20.6°C 58.0°F14.4°C 68% 10.4 mph S16.7 kmh S 15.0 mph24.1 kmh 30.12 in1020.0 mb - 0.00 in0.0 mm 0.00 in0.0 mm
03:50 PM 68.3°F20.2°C 57.7°F14.3°C 69% 9.2 mph SSW14.8 kmh SSW 16.1 mph25.9 kmh 30.12 in1020.0 mb - 0.00 in0.0 mm 0.00 in0.0 mm
03:30 PM 70.0°F21.1°C 58.2°F14.6°C 66% 18.4 mph SSW29.6 kmh SSW 25.3 mph40.7 kmh 30.12 in1020.0 mb - 0.00 in0.0 mm 0.00 in0.0 mm
03:20 PM 71.0°F21.7°C 58.6°F14.8°C 65% 16.1 mph SSW25.9 kmh SSW 19.6 mph31.5 kmh 30.12 in1020.0 mb - 0.00 in0.0 mm 0.00 in0.0 mm
03:10 PM 69.6°F20.9°C 58.2°F14.6°C 67% 17.3 mph SSW27.8 kmh SSW 24.2 mph38.9 kmh 30.12 in1020.0 mb - 0.00 in0.0 mm 0.00 in0.0 mm
03:00 PM 70.5°F21.4°C 58.2°F14.6°C 65% 13.8 mph SSW22.2 kmh SSW 25.3 mph40.7 kmh 30.12 in1020.0 mb - 0.00 in0.0 mm 0.00 in0.0 mm
02:50 PM 70.6°F21.4°C 57.8°F14.3°C 64% 17.3 mph SSW27.8 kmh SSW 28.8 mph46.3 kmh 30.11 in1019.6 mb - 0.00 in0.0 mm 0.00 in0.0 mm
02:40 PM 70.6°F21.4°C 58.3°F14.6°C 65% 19.6 mph SSW31.5 kmh SSW 20.7 mph33.3 kmh 30.11 in1019.6 mb - 0.00 in0.0 mm 0.00 in0.0 mm
02:30 PM 70.3°F21.3°C 58.0°F14.4°C 65% 18.4 mph SSW29.6 kmh SSW 23.0 mph37.0 kmh 30.11 in1019.6 mb - 0.00 in0.0 mm 0.00 in0.0 mm
02:20 PM 70.2°F21.2°C 58.3°F14.6°C 66% 12.7 mph SSW20.4 kmh SSW 26.5 mph42.6 kmh 30.12 in1020.0 mb - 0.00 in0.0 mm 0.00 in0.0 mm
02:10 PM 70.4°F21.3°C 57.6°F14.2°C 64% 12.7 mph SSW20.4 kmh SSW 20.7 mph33.3 kmh 30.12 in1020.0 mb - 0.00 in0.0 mm 0.00 in0.0 mm
02:00 PM 70.7°F21.5°C 57.9°F14.4°C 64% 15.0 mph SSW24.1 kmh SSW 24.2 mph38.9 kmh 30.13 in1020.3 mb - 0.00 in0.0 mm 0.00 in0.0 mm
01:50 PM 70.2°F21.2°C 57.0°F13.9°C 63% 17.3 mph SSW27.8 kmh SSW 24.2 mph38.9 kmh 30.12 in1020.0 mb - 0.00 in0.0 mm 0.00 in0.0 mm
01:40 PM 70.3°F21.3°C 58.4°F14.7°C 66% 12.7 mph S20.4 kmh S 21.9 mph35.2 kmh 30.13 in1020.3 mb - 0.00 in0.0 mm 0.00 in0.0 mm
01:30 PM 69.5°F20.8°C 58.1°F14.5°C 67% 12.7 mph SSW20.4 kmh SSW 16.1 mph25.9 kmh 30.13 in1020.3 mb - 0.00 in0.0 mm 0.00 in0.0 mm
01:20 PM 69.4°F20.8°C 57.1°F13.9°C 65% 17.3 mph SSW27.8 kmh SSW 24.2 mph38.9 kmh 30.13 in1020.3 mb - 0.00 in0.0 mm 0.00 in0.0 mm
01:10 PM 68.8°F20.4°C 58.2°F14.6°C 69% 12.7 mph SW20.4 kmh SW 19.6 mph31.5 kmh 30.14 in1020.7 mb - 0.00 in0.0 mm 0.00 in0.0 mm
01:00 PM 67.0°F19.4°C 57.3°F14.1°C 71% 13.8 mph SSW22.2 kmh SSW 18.4 mph29.6 kmh 30.14 in1020.7 mb - 0.00 in0.0 mm 0.00 in0.0 mm
12:50 PM 66.6°F19.2°C 56.9°F13.8°C 71% 18.4 mph SSW29.6 kmh SSW 21.9 mph35.2 kmh 30.14 in1020.7 mb - 0.00 in0.0 mm 0.00 in0.0 mm
12:40 PM 66.5°F19.2°C 56.8°F13.8°C 71% 16.1 mph SSW25.9 kmh SSW 19.6 mph31.5 kmh 30.15 in1021.0 mb - 0.00 in0.0 mm 0.00 in0.0 mm
12:30 PM 66.6°F19.2°C 57.3°F14.1°C 72% 17.3 mph SSW27.8 kmh SSW 24.2 mph38.9 kmh 30.14 in1020.7 mb - 0.00 in0.0 mm 0.00 in0.0 mm
12:10 PM 66.0°F18.9°C 56.7°F13.7°C 72% 12.7 mph SSW20.4 kmh SSW 21.9 mph35.2 kmh 30.15 in1021.0 mb - 0.00 in0.0 mm 0.00 in0.0 mm
12:00 PM 65.5°F18.6°C 56.2°F13.4°C 72% 6.9 mph SSE11.1 kmh SSE 11.5 mph18.5 kmh 30.15 in1021.0 mb - 0.00 in0.0 mm 0.00 in0.0 mm
11:50 AM 65.8°F18.8°C 57.3°F14.1°C 74% 10.4 mph SSW16.7 kmh SSW 15.0 mph24.1 kmh 30.16 in1021.3 mb - 0.00 in0.0 mm 0.00 in0.0 mm
11:40 AM 64.3°F17.9°C 56.9°F13.8°C 77% 16.1 mph SSW25.9 kmh SSW 19.6 mph31.5 kmh 30.16 in1021.3 mb - 0.00 in0.0 mm 0.00 in0.0 mm
11:30 AM 63.2°F17.3°C 56.2°F13.4°C 78% 12.7 mph SSW20.4 kmh SSW 18.4 mph29.6 kmh 30.16 in1021.3 mb - 0.00 in0.0 mm 0.00 in0.0 mm
11:20 AM 62.9°F17.2°C 55.9°F13.3°C 78% 16.1 mph SSW25.9 kmh SSW 26.5 mph42.6 kmh 30.15 in1021.0 mb - 0.00 in0.0 mm 0.00 in0.0 mm
11:10 AM 63.0°F17.2°C 55.7°F13.2°C 77% 6.9 mph SW11.1 kmh SW 10.4 mph16.7 kmh 30.16 in1021.3 mb - 0.00 in0.0 mm 0.00 in0.0 mm
11:00 AM 63.6°F17.6°C 56.3°F13.5°C 77% 9.2 mph SW14.8 kmh SW 12.7 mph20.4 kmh 30.15 in1021.0 mb - 0.00 in0.0 mm 0.00 in0.0 mm
10:50 AM 64.0°F17.8°C 56.3°F13.5°C 76% 4.6 mph W7.4 kmh W 10.4 mph16.7 kmh 30.16 in1021.3 mb - 0.00 in0.0 mm 0.00 in0.0 mm
10:40 AM 63.5°F17.5°C 56.2°F13.4°C 77% 9.2 mph SW14.8 kmh SW 11.5 mph18.5 kmh 30.15 in1021.0 mb - 0.00 in0.0 mm 0.00 in0.0 mm
10:30 AM 64.0°F17.8°C 56.6°F13.7°C 77% 3.5 mph WSW5.6 kmh WSW 4.6 mph7.4 kmh 30.16 in1021.3 mb - 0.00 in0.0 mm 0.00 in0.0 mm
10:20 AM 62.8°F17.1°C 56.2°F13.4°C 79% 11.5 mph SW18.5 kmh SW 15.0 mph24.1 kmh 30.16 in1021.3 mb - 0.00 in0.0 mm 0.00 in0.0 mm
10:10 AM 62.6°F17.0°C 56.7°F13.7°C 81% 10.4 mph WSW16.7 kmh WSW 12.7 mph20.4 kmh 30.16 in1021.3 mb - 0.00 in0.0 mm 0.00 in0.0 mm
10:00 AM 61.7°F16.5°C 56.5°F13.6°C 83% 4.6 mph SW7.4 kmh SW 6.9 mph11.1 kmh 30.16 in1021.3 mb - 0.00 in0.0 mm 0.00 in0.0 mm
09:50 AM 61.1°F16.2°C 56.5°F13.6°C 85% 3.5 mph W5.6 kmh W 4.6 mph7.4 kmh 30.15 in1021.0 mb - 0.00 in0.0 mm 0.00 in0.0 mm
09:40 AM 60.4°F15.8°C 56.8°F13.8°C 88% 8.1 mph SW13.0 kmh SW 11.5 mph18.5 kmh 30.15 in1021.0 mb - 0.00 in0.0 mm 0.00 in0.0 mm
09:30 AM 59.5°F15.3°C 56.9°F13.8°C 91% 8.1 mph SW13.0 kmh SW 8.1 mph13.0 kmh 30.15 in1021.0 mb - 0.00 in0.0 mm 0.00 in0.0 mm
09:20 AM 58.6°F14.8°C 56.3°F13.5°C 92% 1.1 mph SW1.8 kmh SW 3.5 mph5.6 kmh 30.15 in1021.0 mb - 0.00 in0.0 mm 0.00 in0.0 mm
09:10 AM 58.3°F14.6°C 56.3°F13.5°C 93% 3.5 mph W5.6 kmh W 4.6 mph7.4 kmh 30.15 in1021.0 mb - 0.00 in0.0 mm 0.00 in0.0 mm
09:00 AM 57.3°F14.1°C 55.6°F13.1°C 94% 4.6 mph WSW7.4 kmh WSW 5.8 mph9.3 kmh 30.15 in1021.0 mb - 0.00 in0.0 mm 0.00 in0.0 mm
08:50 AM 56.4°F13.6°C 54.7°F12.6°C 94% 2.3 mph WSW3.7 kmh WSW 4.6 mph7.4 kmh 30.14 in1020.7 mb - 0.00 in0.0 mm 0.00 in0.0 mm
08:40 AM 56.0°F13.3°C 54.3°F12.4°C 94% 1.1 mph WSW1.8 kmh WSW 1.1 mph1.8 kmh 30.14 in1020.7 mb - 0.00 in0.0 mm 0.00 in0.0 mm
08:30 AM 55.8°F13.2°C 54.1°F12.3°C 94% 3.5 mph WSW5.6 kmh WSW 3.5 mph5.6 kmh 30.15 in1021.0 mb - 0.00 in0.0 mm 0.00 in0.0 mm
08:20 AM 55.2°F12.9°C 53.2°F11.8°C 93% 3.5 mph WSW5.6 kmh WSW 6.9 mph11.1 kmh 30.15 in1021.0 mb - 0.00 in0.0 mm 0.00 in0.0 mm
08:10 AM 55.0°F12.8°C 53.0°F11.7°C 93% Calm Calm -- 30.14 in1020.7 mb - 0.00 in0.0 mm 0.00 in0.0 mm
08:00 AM 54.8°F12.7°C 52.8°F11.6°C 93% 1.1 mph WSW1.8 kmh WSW 2.3 mph3.7 kmh 30.14 in1020.7 mb - 0.00 in0.0 mm 0.00 in0.0 mm
07:50 AM 54.6°F12.6°C 52.6°F11.4°C 93% 1.1 mph SW1.8 kmh SW 4.6 mph7.4 kmh 30.13 in1020.3 mb - 0.00 in0.0 mm 0.00 in0.0 mm
07:40 AM 54.6°F12.6°C 52.6°F11.4°C 93% Calm Calm -- 30.13 in1020.3 mb - 0.00 in0.0 mm 0.00 in0.0 mm
07:30 AM 54.7°F12.6°C 52.7°F11.5°C 93% Calm Calm -- 30.13 in1020.3 mb - 0.00 in0.0 mm 0.00 in0.0 mm
07:20 AM 54.8°F12.7°C 52.8°F11.6°C 93% Calm Calm -- 30.12 in1020.0 mb - 0.00 in0.0 mm 0.00 in0.0 mm
07:10 AM 54.9°F12.7°C 52.9°F11.6°C 93% Calm Calm 1.1 mph1.8 kmh 30.12 in1020.0 mb - 0.00 in0.0 mm 0.00 in0.0 mm
07:00 AM 54.9°F12.7°C 52.9°F11.6°C 93% Calm Calm 2.3 mph3.7 kmh 30.11 in1019.6 mb - 0.00 in0.0 mm 0.00 in0.0 mm
06:50 AM 55.0°F12.8°C 53.0°F11.7°C 93% Calm Calm -- 30.10 in1019.3 mb - 0.00 in0.0 mm 0.00 in0.0 mm
06:40 AM 55.1°F12.8°C 53.1°F11.7°C 93% Calm Calm -- 30.11 in1019.6 mb - 0.00 in0.0 mm 0.00 in0.0 mm
06:30 AM 55.1°F12.8°C 53.1°F11.7°C 93% 1.1 mph SW1.8 kmh SW 2.3 mph3.7 kmh 30.11 in1019.6 mb - 0.00 in0.0 mm 0.00 in0.0 mm
06:20 AM 55.0°F12.8°C 53.0°F11.7°C 93% 3.5 mph SW5.6 kmh SW 5.8 mph9.3 kmh 30.12 in1020.0 mb - 0.00 in0.0 mm 0.00 in0.0 mm
06:10 AM 55.1°F12.8°C 53.1°F11.7°C 93% Calm Calm -- 30.11 in1019.6 mb - 0.00 in0.0 mm 0.00 in0.0 mm
06:00 AM 55.2°F12.9°C 53.2°F11.8°C 93% Calm Calm -- 30.11 in1019.6 mb - 0.00 in0.0 mm 0.00 in0.0 mm
05:50 AM 55.2°F12.9°C 53.2°F11.8°C 93% Calm Calm -- 30.12 in1020.0 mb - 0.00 in0.0 mm 0.00 in0.0 mm
05:40 AM 55.3°F12.9°C 53.3°F11.8°C 93% Calm Calm -- 30.11 in1019.6 mb - 0.00 in0.0 mm 0.00 in0.0 mm
05:30 AM 55.2°F12.9°C 53.2°F11.8°C 93% Calm Calm 2.3 mph3.7 kmh 30.11 in1019.6 mb - 0.00 in0.0 mm 0.00 in0.0 mm
05:20 AM 55.2°F12.9°C 53.2°F11.8°C 93% Calm Calm -- 30.11 in1019.6 mb - 0.00 in0.0 mm 0.00 in0.0 mm
05:10 AM 55.2°F12.9°C 53.2°F11.8°C 93% 1.1 mph SW1.8 kmh SW 2.3 mph3.7 kmh 30.11 in1019.6 mb - 0.00 in0.0 mm 0.00 in0.0 mm
05:00 AM 55.1°F12.8°C 53.1°F11.7°C 93% 3.5 mph WSW5.6 kmh WSW 4.6 mph7.4 kmh 30.11 in1019.6 mb - 0.00 in0.0 mm 0.00 in0.0 mm
04:50 AM 55.1°F12.8°C 53.1°F11.7°C 93% 1.1 mph WSW1.8 kmh WSW 2.3 mph3.7 kmh 30.12 in1020.0 mb - 0.00 in0.0 mm 0.00 in0.0 mm
04:40 AM 55.0°F12.8°C 53.0°F11.7°C 93% Calm Calm -- 30.12 in1020.0 mb - 0.00 in0.0 mm 0.00 in0.0 mm
04:30 AM 55.0°F12.8°C 52.7°F11.5°C 92% Calm Calm -- 30.12 in1020.0 mb - 0.00 in0.0 mm 0.00 in0.0 mm
04:20 AM 55.0°F12.8°C 52.7°F11.5°C 92% 1.1 mph WSW1.8 kmh WSW 2.3 mph3.7 kmh 30.11 in1019.6 mb - 0.00 in0.0 mm 0.00 in0.0 mm
04:10 AM 55.1°F12.8°C 52.8°F11.6°C 92% 1.1 mph WSW1.8 kmh WSW 3.5 mph5.6 kmh 30.10 in1019.3 mb - 0.00 in0.0 mm 0.00 in0.0 mm
04:00 AM 55.1°F12.8°C 52.8°F11.6°C 92% 1.1 mph WSW1.8 kmh WSW 1.1 mph1.8 kmh 30.11 in1019.6 mb - 0.00 in0.0 mm 0.00 in0.0 mm
03:50 AM 55.1°F12.8°C 52.9°F11.6°C 92% 3.5 mph WSW5.6 kmh WSW 3.5 mph5.6 kmh 30.11 in1019.6 mb - 0.00 in0.0 mm 0.00 in0.0 mm
03:40 AM 55.1°F12.8°C 52.8°F11.6°C 92% 3.5 mph WSW5.6 kmh WSW 4.6 mph7.4 kmh 30.11 in1019.6 mb - 0.00 in0.0 mm 0.00 in0.0 mm
03:30 AM 55.0°F12.8°C 52.7°F11.5°C 92% 3.5 mph WSW5.6 kmh WSW 4.6 mph7.4 kmh 30.12 in1020.0 mb - 0.00 in0.0 mm 0.00 in0.0 mm
03:20 AM 54.9°F12.7°C 52.6°F11.4°C 92% 5.8 mph WSW9.3 kmh WSW 8.1 mph13.0 kmh 30.12 in1020.0 mb - 0.00 in0.0 mm 0.00 in0.0 mm
03:10 AM 54.8°F12.7°C 52.5°F11.4°C 92% 3.5 mph WSW5.6 kmh WSW 6.9 mph11.1 kmh 30.12 in1020.0 mb - 0.00 in0.0 mm 0.00 in0.0 mm
03:00 AM 54.6°F12.6°C 52.3°F11.3°C 92% 3.5 mph WSW5.6 kmh WSW 6.9 mph11.1 kmh 30.12 in1020.0 mb - 0.00 in0.0 mm 0.00 in0.0 mm
02:50 AM 54.5°F12.5°C 51.9°F11.1°C 91% 3.5 mph WSW5.6 kmh WSW 4.6 mph7.4 kmh 30.11 in1019.6 mb - 0.00 in0.0 mm 0.00 in0.0 mm
02:40 AM 54.5°F12.5°C 51.9°F11.1°C 91% Calm Calm -- 30.12 in1020.0 mb - 0.00 in0.0 mm 0.00 in0.0 mm
02:30 AM 54.5°F12.5°C 51.9°F11.1°C 91% 1.1 mph WSW1.8 kmh WSW 1.1 mph1.8 kmh 30.12 in1020.0 mb - 0.00 in0.0 mm 0.00 in0.0 mm
02:20 AM 54.3°F12.4°C 51.7°F10.9°C 91% Calm Calm 2.3 mph3.7 kmh 30.12 in1020.0 mb - 0.00 in0.0 mm 0.00 in0.0 mm
02:10 AM 54.2°F12.3°C 51.6°F10.9°C 91% Calm Calm -- 30.11 in1019.6 mb - 0.00 in0.0 mm 0.00 in0.0 mm
02:00 AM 54.2°F12.3°C 51.3°F10.7°C 90% Calm Calm 1.1 mph1.8 kmh 30.12 in1020.0 mb - 0.00 in0.0 mm 0.00 in0.0 mm
01:50 AM 54.3°F12.4°C 51.4°F10.8°C 90% Calm Calm -- 30.11 in1019.6 mb - 0.00 in0.0 mm 0.00 in0.0 mm
01:40 AM 54.6°F12.6°C 51.7°F10.9°C 90% Calm Calm -- 30.11 in1019.6 mb - 0.00 in0.0 mm 0.00 in0.0 mm
01:30 AM 54.7°F12.6°C 51.8°F11.0°C 90% Calm Calm -- 30.11 in1019.6 mb - 0.00 in0.0 mm 0.00 in0.0 mm
01:20 AM 54.7°F12.6°C 51.8°F11.0°C 90% Calm Calm 1.1 mph1.8 kmh 30.11 in1019.6 mb - 0.00 in0.0 mm 0.00 in0.0 mm
01:10 AM 54.7°F12.6°C 51.8°F11.0°C 90% 2.3 mph WSW3.7 kmh WSW 2.3 mph3.7 kmh 30.11 in1019.6 mb - 0.00 in0.0 mm 0.00 in0.0 mm
01:00 AM 54.7°F12.6°C 51.8°F11.0°C 90% Calm Calm 1.1 mph1.8 kmh 30.11 in1019.6 mb - 0.00 in0.0 mm 0.00 in0.0 mm
12:50 AM 54.8°F12.7°C 51.9°F11.1°C 90% Calm Calm -- 30.11 in1019.6 mb - 0.00 in0.0 mm 0.00 in0.0 mm
12:40 AM 54.9°F12.7°C 52.0°F11.1°C 90% Calm Calm -- 30.12 in1020.0 mb - 0.00 in0.0 mm 0.00 in0.0 mm
12:30 AM 54.9°F12.7°C 52.0°F11.1°C 90% Calm Calm -- 30.12 in1020.0 mb - 0.00 in0.0 mm 0.00 in0.0 mm
12:20 AM 54.8°F12.7°C 52.0°F11.1°C 90% 1.1 mph WSW1.8 kmh WSW 2.3 mph3.7 kmh 30.12 in1020.0 mb - 0.00 in0.0 mm 0.00 in0.0 mm
12:10 AM 54.8°F12.7°C 51.6°F10.9°C 89% 5.8 mph WSW9.3 kmh WSW 5.8 mph9.3 kmh 30.12 in1020.0 mb - 0.00 in0.0 mm 0.00 in0.0 mm
12:00 AM 54.7°F12.6°C 51.5°F10.8°C 89% 2.3 mph SW3.7 kmh SW 2.3 mph3.7 kmh 30.12 in1020.0 mb - 0.00 in0.0 mm 0.00 in0.0 mm